createdAt,value
2023-04-17T00:00:16.411Z,10.37
2023-04-17T00:03:20.576Z,10.60
2023-04-17T00:06:24.088Z,10.27
2023-04-17T00:09:26.806Z,10.38
2023-04-17T00:12:29.405Z,10.20
2023-04-17T00:15:31.966Z,9.87
2023-04-17T00:18:36.188Z,9.87
2023-04-17T00:21:38.796Z,10.90
2023-04-17T00:24:41.300Z,10.47
2023-04-17T00:27:43.919Z,10.50
2023-04-17T00:30:46.681Z,10.23
2023-04-17T00:33:50.656Z,9.77
2023-04-17T00:36:53.160Z,10.03
2023-04-17T00:39:55.785Z,10.03
2023-04-17T00:43:01.230Z,9.43
2023-04-17T00:46:04.958Z,10.30
2023-04-17T00:49:09.476Z,9.90
2023-04-17T00:52:12.277Z,10.10
2023-04-17T00:55:15.405Z,10.80
2023-04-17T00:58:18.067Z,10.00
2023-04-17T01:01:22.280Z,10.77
2023-04-17T01:04:26.640Z,10.27
2023-04-17T01:07:30.996Z,10.10
2023-04-17T01:10:33.514Z,9.63
2023-04-17T01:13:36.240Z,10.43
2023-04-17T01:16:39.288Z,10.75
2023-04-17T01:19:43.397Z,10.55
2023-04-17T01:22:45.876Z,11.00
2023-04-17T01:25:51.151Z,10.03
2023-04-17T01:28:54.320Z,10.97
2023-04-17T01:31:56.853Z,9.60
2023-04-17T01:34:59.997Z,10.43
2023-04-17T01:38:02.528Z,10.80
2023-04-17T01:41:09.959Z,10.27
2023-04-17T01:44:12.469Z,10.50
2023-04-17T01:47:15.032Z,10.03
2023-04-17T01:50:17.865Z,10.47
2023-04-17T01:53:20.500Z,10.80
2023-04-17T01:56:24.379Z,10.30
2023-04-17T01:59:27.268Z,10.50
2023-04-17T02:02:29.920Z,10.90
2023-04-17T02:05:32.693Z,10.98
2023-04-17T02:08:35.637Z,11.00
2023-04-17T02:11:39.744Z,9.35
2023-04-17T02:14:42.363Z,10.50
2023-04-17T02:17:44.935Z,10.87
2023-04-17T02:20:47.634Z,11.23
2023-04-17T02:23:50.378Z,11.05
2023-04-17T02:26:54.289Z,9.85
2023-04-17T02:29:56.939Z,10.97
2023-04-17T02:32:59.765Z,10.80
2023-04-17T02:36:02.415Z,11.57
2023-04-17T02:39:05.439Z,12.20
2023-04-17T02:42:10.213Z,10.25
2023-04-17T02:45:12.922Z,10.30
2023-04-17T02:48:16.369Z,10.50
2023-04-17T02:51:18.899Z,9.68
2023-04-17T02:54:21.616Z,11.07
2023-04-17T02:57:26.083Z,11.57
2023-04-17T03:00:28.672Z,11.57
2023-04-17T03:03:35.105Z,10.97
2023-04-17T03:06:37.919Z,10.73
2023-04-17T03:09:40.388Z,10.67
2023-04-17T03:12:44.391Z,11.97
2023-04-17T03:15:47.028Z,11.27
2023-04-17T03:18:49.533Z,12.13
2023-04-17T03:21:52.188Z,11.33
2023-04-17T03:24:54.735Z,13.20
2023-04-17T03:27:58.626Z,10.73
2023-04-17T03:31:01.560Z,11.90
2023-04-17T03:34:04.273Z,11.57
2023-04-17T03:37:06.843Z,12.33
2023-04-17T03:40:10.128Z,11.73
2023-04-17T03:43:14.135Z,11.40
2023-04-17T03:46:17.228Z,11.27
2023-04-17T03:49:20.017Z,11.05
2023-04-17T03:52:22.662Z,10.93
2023-04-17T03:55:25.439Z,11.93
2023-04-17T03:58:29.579Z,10.97
2023-04-17T04:01:32.834Z,11.53
2023-04-17T04:04:36.029Z,11.07
2023-04-17T04:07:38.730Z,11.48
2023-04-17T04:10:44.166Z,11.57
2023-04-17T04:13:47.966Z,10.90
2023-04-17T04:16:50.869Z,12.33
2023-04-17T04:19:53.518Z,10.55
2023-04-17T04:22:57.529Z,11.55
2023-04-17T04:26:01.787Z,11.17
2023-04-17T04:29:05.914Z,11.10
2023-04-17T04:32:09.629Z,10.73
2023-04-17T04:35:12.665Z,10.80
2023-04-17T04:38:15.329Z,11.10
2023-04-17T04:41:19.895Z,10.20
2023-04-17T04:44:23.850Z,9.90
2023-04-17T04:47:26.460Z,11.13
2023-04-17T04:50:29.073Z,11.03
2023-04-17T04:53:31.940Z,11.93
2023-04-17T04:56:34.511Z,10.75
2023-04-17T04:59:39.043Z,11.47
2023-04-17T05:02:41.991Z,11.10
2023-04-17T05:05:44.887Z,10.07
2023-04-17T05:08:47.553Z,12.13
2023-04-17T05:11:52.818Z,10.87
2023-04-17T05:14:56.769Z,11.17
2023-04-17T05:17:59.284Z,10.67
2023-04-17T05:21:01.929Z,12.30
2023-04-17T05:24:04.789Z,11.27
2023-04-17T05:27:07.460Z,11.05
2023-04-17T05:30:12.859Z,11.17
2023-04-17T05:33:15.481Z,11.17
2023-04-17T05:36:18.056Z,10.53
2023-04-17T05:39:20.662Z,10.70
2023-04-17T05:42:23.372Z,10.63
2023-04-17T05:45:27.242Z,9.70
2023-04-17T05:48:30.040Z,11.23
2023-04-17T05:51:32.527Z,10.63
2023-04-17T05:54:35.238Z,11.20
2023-04-17T05:57:37.772Z,12.38
2023-04-17T06:00:42.420Z,10.97
2023-04-17T06:03:45.351Z,11.00
2023-04-17T06:06:48.094Z,10.95
2023-04-17T06:09:50.595Z,11.77
2023-04-17T06:12:53.616Z,10.50
2023-04-17T06:15:57.526Z,11.77
2023-04-17T06:19:00.109Z,11.67
2023-04-17T06:22:03.457Z,11.27
2023-04-17T06:25:07.243Z,10.43
2023-04-17T06:28:10.349Z,10.40
2023-04-17T06:31:14.709Z,11.18
2023-04-17T06:34:17.351Z,10.83
2023-04-17T06:37:20.108Z,10.97
2023-04-17T06:40:22.863Z,9.73
2023-04-17T06:43:25.414Z,10.65
2023-04-17T06:46:29.482Z,10.13
2023-04-17T06:49:32.685Z,9.93
2023-04-17T06:52:35.337Z,10.52
2023-04-17T06:55:37.921Z,9.37
2023-04-17T06:58:44.182Z,9.83
2023-04-17T07:01:48.722Z,10.57
2023-04-17T07:04:51.642Z,11.07
2023-04-17T07:07:55.273Z,9.57
2023-04-17T07:14:00.365Z,9.20
2023-04-17T07:17:04.824Z,9.90
2023-04-17T07:20:08.687Z,11.03
2023-04-17T07:23:11.205Z,9.60
2023-04-17T07:26:14.057Z,9.93
2023-04-17T07:29:16.793Z,10.65
2023-04-17T07:32:20.805Z,9.48
2023-04-17T07:35:23.489Z,9.97
2023-04-17T07:38:26.181Z,9.40
2023-04-17T07:41:28.800Z,10.53
2023-04-17T07:44:31.368Z,10.40
2023-04-17T07:47:35.409Z,10.53
2023-04-17T07:50:38.172Z,9.67
2023-04-17T07:53:40.860Z,10.35
2023-04-17T07:56:46.557Z,8.70
2023-04-17T07:59:49.209Z,8.30
2023-04-17T08:02:53.381Z,8.47
2023-04-17T08:05:56.225Z,9.47
2023-04-17T08:08:59.870Z,9.03
2023-04-17T08:15:06.063Z,9.10
2023-04-17T08:18:10.559Z,8.30
2023-04-17T08:21:13.308Z,8.73
2023-04-17T08:24:18.720Z,9.65
2023-04-17T08:27:22.286Z,8.03
2023-04-17T08:30:25.491Z,8.93
2023-04-17T08:33:29.485Z,8.25
2023-04-17T08:36:32.378Z,8.50
2023-04-17T08:39:34.933Z,8.07
2023-04-17T08:42:38.106Z,8.50
2023-04-17T08:45:41.573Z,7.88
2023-04-17T08:48:45.513Z,7.55
2023-04-17T08:51:48.173Z,7.37
2023-04-17T08:54:51.487Z,7.43
2023-04-17T08:57:55.647Z,6.93
2023-04-17T09:01:08.715Z,6.20
2023-04-17T09:04:16.305Z,7.25
2023-04-17T09:07:18.905Z,5.83
2023-04-17T09:10:21.987Z,5.87
2023-04-17T09:13:27.272Z,6.57
2023-04-17T09:16:29.843Z,4.70
2023-04-17T09:19:35.206Z,4.90
2023-04-17T09:22:39.352Z,5.30
2023-04-17T09:25:41.959Z,5.00
2023-04-17T09:29:02.217Z,5.73
2023-04-17T09:32:15.691Z,4.83
2023-04-17T09:35:26.802Z,4.20
2023-04-17T09:38:38.062Z,4.73
2023-04-17T09:41:41.702Z,5.40
2023-04-17T09:47:48.740Z,5.17
2023-04-17T09:50:52.996Z,4.03
2023-04-17T09:53:57.000Z,4.80
2023-04-17T09:57:00.170Z,4.20
2023-04-17T10:00:05.563Z,5.13
2023-04-17T10:03:08.329Z,4.10
2023-04-17T10:06:13.329Z,4.78
2023-04-17T10:09:16.004Z,5.00
2023-04-17T10:12:19.781Z,4.10
2023-04-17T10:15:23.166Z,3.93
2023-04-17T10:18:26.356Z,4.50
2023-04-17T10:21:31.070Z,4.18
2023-04-17T10:24:33.727Z,4.37
2023-04-17T10:27:48.011Z,3.88
2023-04-17T10:30:52.245Z,5.37
2023-04-17T10:33:55.494Z,3.97
2023-04-17T10:37:01.309Z,3.72
2023-04-17T10:40:05.667Z,3.80
2023-04-17T10:43:13.122Z,3.33
2023-04-17T10:46:16.081Z,3.40
2023-04-17T10:49:18.717Z,3.42
2023-04-17T10:52:44.592Z,3.25
2023-04-17T10:55:49.871Z,3.20
2023-04-17T10:58:59.586Z,2.43
2023-04-17T11:02:04.811Z,2.83
2023-04-17T11:05:08.204Z,3.17
2023-04-17T11:08:12.458Z,2.75
2023-04-17T11:11:18.601Z,2.40
2023-04-17T11:14:26.508Z,2.40
2023-04-17T11:17:29.153Z,2.03
2023-04-17T11:20:33.825Z,2.28
2023-04-17T11:23:38.873Z,2.37
2023-04-17T11:26:45.009Z,2.67
2023-04-17T11:29:47.552Z,2.53
2023-04-17T11:32:50.492Z,2.97
2023-04-17T11:35:55.339Z,2.58
2023-04-17T11:38:59.304Z,2.80
2023-04-17T11:42:02.631Z,2.70
2023-04-17T11:45:05.934Z,3.07
2023-04-17T11:51:13.612Z,2.65
2023-04-17T11:54:25.936Z,2.60
2023-04-17T11:57:28.466Z,2.80
2023-04-17T12:00:31.812Z,2.80
2023-04-17T12:06:38.501Z,2.55
2023-04-17T12:09:42.453Z,2.85
2023-04-17T12:12:45.278Z,2.87
2023-04-17T12:15:47.869Z,3.05
2023-04-17T12:18:50.420Z,2.38
2023-04-17T12:21:54.318Z,3.20
2023-04-17T12:24:58.513Z,2.80
2023-04-17T12:28:04.954Z,2.77
2023-04-17T12:31:07.639Z,3.17
2023-04-17T12:34:10.328Z,3.17
2023-04-17T12:37:13.086Z,3.20
2023-04-17T12:40:17.732Z,3.30
2023-04-17T12:43:20.329Z,3.17
2023-04-17T12:46:22.972Z,3.72
2023-04-17T12:49:25.565Z,2.92
2023-04-17T12:52:28.175Z,2.72
2023-04-17T12:55:32.309Z,2.80
2023-04-17T12:58:34.932Z,3.70
2023-04-17T13:01:37.595Z,2.78
2023-04-17T13:04:40.523Z,2.97
2023-04-17T13:07:43.210Z,3.25
2023-04-17T13:10:47.176Z,3.30
2023-04-17T13:13:49.802Z,3.23
2023-04-17T13:16:52.531Z,2.72
2023-04-17T13:19:55.197Z,2.70
2023-04-17T13:22:58.971Z,2.80
2023-04-17T13:26:03.149Z,2.97
2023-04-17T13:29:06.369Z,2.73
2023-04-17T13:32:08.964Z,2.97
2023-04-17T13:35:13.381Z,3.70
2023-04-17T13:38:16.277Z,3.20
2023-04-17T13:41:20.949Z,3.35
2023-04-17T13:44:23.503Z,3.00
2023-04-17T13:47:26.297Z,2.90
2023-04-17T13:50:28.907Z,3.58
2023-04-17T13:53:31.563Z,2.85
2023-04-17T13:56:35.560Z,2.90
2023-04-17T13:59:38.182Z,3.00
2023-04-17T14:02:41.025Z,3.10
2023-04-17T14:05:43.972Z,2.92
2023-04-17T14:08:46.836Z,2.40
2023-04-17T14:11:50.971Z,2.92
2023-04-17T14:14:53.558Z,3.30
2023-04-17T14:17:56.388Z,2.63
2023-04-17T14:20:59.056Z,4.22
2023-04-17T14:24:01.722Z,3.25
2023-04-17T14:27:05.664Z,3.40
2023-04-17T14:30:09.370Z,2.70
2023-04-17T14:33:12.112Z,2.60
2023-04-17T14:36:14.887Z,2.60
2023-04-17T14:39:18.738Z,2.33
2023-04-17T14:42:22.582Z,2.93
2023-04-17T14:45:25.565Z,3.17
2023-04-17T14:48:29.748Z,2.70
2023-04-17T14:51:33.759Z,3.03
2023-04-17T14:54:37.440Z,3.23
2023-04-17T14:57:41.543Z,2.90
2023-04-17T15:00:44.283Z,3.33
2023-04-17T15:03:48.600Z,3.10
2023-04-17T15:06:51.715Z,2.60
2023-04-17T15:09:56.252Z,2.50
2023-04-17T15:13:00.501Z,3.13
2023-04-17T15:16:03.352Z,2.77
2023-04-17T15:19:06.058Z,2.72
2023-04-17T15:22:08.593Z,2.80
2023-04-17T15:25:11.264Z,3.10
2023-04-17T15:28:15.899Z,2.97
2023-04-17T15:31:18.689Z,2.50
2023-04-17T15:34:21.541Z,2.38
2023-04-17T15:37:24.398Z,2.40
2023-04-17T15:40:27.027Z,2.75
2023-04-17T15:43:31.058Z,3.00
2023-04-17T15:46:33.735Z,2.40
2023-04-17T15:49:36.752Z,2.28
2023-04-17T15:52:39.698Z,2.75
2023-04-17T15:55:42.344Z,2.60
2023-04-17T15:58:46.227Z,2.95
2023-04-17T16:01:48.885Z,2.57
2023-04-17T16:04:51.522Z,2.50
2023-04-17T16:07:54.162Z,2.60
2023-04-17T16:10:56.728Z,2.33
2023-04-17T16:14:00.589Z,2.58
2023-04-17T16:17:03.611Z,2.50
2023-04-17T16:20:07.361Z,2.80
2023-04-17T16:23:09.891Z,2.80
2023-04-17T16:26:15.148Z,2.80
2023-04-17T16:29:19.220Z,2.43
2023-04-17T16:32:22.096Z,2.20
2023-04-17T16:35:24.876Z,2.40
2023-04-17T16:38:28.073Z,3.00
2023-04-17T16:41:31.152Z,2.35
2023-04-17T16:44:35.360Z,2.47
2023-04-17T16:47:38.857Z,2.83
2023-04-17T16:53:44.318Z,2.23
2023-04-17T16:56:47.473Z,2.28
2023-04-17T16:59:51.441Z,2.67
2023-04-17T17:02:54.209Z,2.60
2023-04-17T17:05:57.374Z,2.42
2023-04-17T17:09:00.227Z,2.33
2023-04-17T17:12:03.388Z,2.33
2023-04-17T17:15:08.763Z,2.83
2023-04-17T17:18:11.401Z,2.53
2023-04-17T17:21:14.374Z,2.35
2023-04-17T17:24:16.954Z,2.30
2023-04-17T17:27:19.542Z,2.10
2023-04-17T17:30:23.849Z,2.10
2023-04-17T17:33:26.370Z,2.20
2023-04-17T17:36:28.999Z,2.13
2023-04-17T17:39:31.505Z,2.10
2023-04-17T17:42:34.118Z,1.80
2023-04-17T17:45:38.124Z,1.60
2023-04-17T17:48:40.782Z,2.63
2023-04-17T17:51:44.395Z,1.70
2023-04-17T17:54:51.726Z,2.10
2023-04-17T17:57:54.376Z,1.67
2023-04-17T18:00:58.489Z,1.60
2023-04-17T18:04:01.202Z,1.70
2023-04-17T18:07:04.212Z,1.70
2023-04-17T18:10:07.996Z,1.77
2023-04-17T18:13:10.559Z,1.70
2023-04-17T18:16:14.690Z,1.60
2023-04-17T18:19:17.279Z,1.87
2023-04-17T18:22:20.604Z,1.60
2023-04-17T18:25:23.432Z,2.05
2023-04-17T18:28:26.077Z,1.70
2023-04-17T18:31:30.225Z,1.73
2023-04-17T18:34:32.847Z,1.53
2023-04-17T18:37:35.495Z,1.60
2023-04-17T18:40:38.227Z,1.58
2023-04-17T18:43:40.719Z,1.60
2023-04-17T18:46:44.601Z,1.53
2023-04-17T18:49:47.261Z,1.77
2023-04-17T18:52:51.206Z,1.90
2023-04-17T18:55:55.401Z,2.00
2023-04-17T18:58:57.925Z,1.93
2023-04-17T19:02:01.979Z,2.00
2023-04-17T19:05:05.326Z,1.40
2023-04-17T19:08:07.910Z,1.50
2023-04-17T19:11:10.474Z,1.43
2023-04-17T19:14:13.107Z,1.63
2023-04-17T19:17:17.214Z,1.83
2023-04-17T19:20:19.909Z,1.53
2023-04-17T19:23:22.354Z,1.88
2023-04-17T19:26:24.963Z,1.70
2023-04-17T19:29:27.484Z,2.30
2023-04-17T19:32:31.871Z,2.43
2023-04-17T19:35:34.573Z,2.20
2023-04-17T19:38:37.530Z,2.50
2023-04-17T19:41:40.113Z,2.65
2023-04-17T19:44:42.596Z,2.50
2023-04-17T19:47:46.410Z,2.20
2023-04-17T19:50:48.887Z,3.03
2023-04-17T19:53:53.361Z,2.80
2023-04-17T19:56:56.112Z,3.37
2023-04-17T19:59:58.624Z,3.20
2023-04-17T20:03:02.731Z,2.93
2023-04-17T20:06:05.913Z,2.83
2023-04-17T20:09:08.467Z,2.95
2023-04-17T20:12:11.285Z,2.87
2023-04-17T20:15:13.756Z,3.53
2023-04-17T20:18:18.465Z,3.37
2023-04-17T20:21:21.106Z,3.73
2023-04-17T20:24:23.618Z,4.00
2023-04-17T20:27:27.009Z,4.40
2023-04-17T20:30:30.286Z,4.22
2023-04-17T20:33:34.234Z,5.00
2023-04-17T20:36:36.801Z,5.17
2023-04-17T20:39:40.768Z,5.40
2023-04-17T20:42:45.262Z,5.03
2023-04-17T20:45:48.297Z,5.00
2023-04-17T20:48:52.708Z,5.38
2023-04-17T20:51:55.334Z,5.63
2023-04-17T20:54:58.047Z,6.27
2023-04-17T20:58:00.665Z,5.78
2023-04-17T21:01:03.630Z,6.90
2023-04-17T21:04:07.657Z,6.43
2023-04-17T21:07:10.277Z,7.43
2023-04-17T21:10:12.773Z,7.40
2023-04-17T21:13:15.338Z,7.17
2023-04-17T21:16:18.049Z,7.70
2023-04-17T21:19:24.124Z,7.57
2023-04-17T21:22:26.820Z,7.17
2023-04-17T21:25:29.364Z,7.20
2023-04-17T21:28:32.330Z,7.00
2023-04-17T21:31:34.832Z,7.57
2023-04-17T21:34:38.762Z,6.47
2023-04-17T21:37:41.319Z,7.23
2023-04-17T21:40:51.073Z,7.13
2023-04-17T21:43:54.717Z,6.33
2023-04-17T21:46:57.393Z,8.02
2023-04-17T21:50:01.313Z,8.00
2023-04-17T21:53:03.787Z,8.50
2023-04-17T21:56:07.228Z,8.03
2023-04-17T21:59:10.087Z,9.25
2023-04-17T22:02:12.712Z,8.80
2023-04-17T22:05:16.617Z,7.67
2023-04-17T22:08:19.308Z,8.27
2023-04-17T22:11:23.004Z,8.13
2023-04-17T22:17:28.089Z,8.67
2023-04-17T22:20:32.092Z,8.53
2023-04-17T22:23:34.745Z,8.40
2023-04-17T22:26:37.303Z,8.87
2023-04-17T22:29:39.888Z,9.63
2023-04-17T22:32:42.552Z,8.93
2023-04-17T22:35:46.680Z,8.98
2023-04-17T22:38:49.303Z,9.60
2023-04-17T22:41:51.803Z,9.03
2023-04-17T22:44:54.306Z,9.67
2023-04-17T22:47:56.872Z,9.53
2023-04-17T22:51:01.021Z,8.73
2023-04-17T22:54:15.169Z,10.20
2023-04-17T22:57:24.552Z,9.37
2023-04-17T23:00:27.088Z,9.70
2023-04-17T23:03:29.788Z,9.53
2023-04-17T23:06:33.665Z,10.20
2023-04-17T23:09:36.214Z,9.70
2023-04-17T23:12:38.776Z,9.70
2023-04-17T23:15:41.295Z,10.03
2023-04-17T23:18:44.162Z,9.80
2023-04-17T23:21:48.054Z,9.40
2023-04-17T23:24:50.690Z,8.97
2023-04-17T23:27:53.295Z,9.40
2023-04-17T23:30:55.811Z,9.20
2023-04-17T23:33:58.431Z,8.73
2023-04-17T23:37:03.304Z,9.60
2023-04-17T23:40:07.649Z,9.27
2023-04-17T23:43:10.228Z,9.10
2023-04-17T23:46:13.229Z,9.80
2023-04-17T23:49:15.944Z,9.73
2023-04-17T23:52:19.952Z,9.15
2023-04-17T23:55:23.391Z,9.73
2023-04-17T23:58:25.888Z,12.05
